Time;durP1;ratioP1;P1;durP2;ratioP2;P2;SDS_P1;SDS_P2;PMS_P1;PMS_P2;Temp;Humidity;BMP_temperature;BMP_pressure;BME280_temperature;BME280_humidity;BME280_pressure;Samples;Min_cycle;Max_cycle;Signal;HPM_P1;HPM_P2
2022/08/01 00:01:52;;;;;;;2.75;2.25;;;;;;;18.63;100.00;101074.34;6246253;28;20056;-69
2022/08/01 00:04:55;;;;;;;4.38;2.80;;;;;;;18.65;100.00;101077.72;6248595;28;20048;-69
2022/08/01 00:07:57;;;;;;;3.30;2.53;;;;;;;18.66;100.00;101079.38;6251453;28;20049;-69
2022/08/01 00:10:58;;;;;;;4.40;2.63;;;;;;;18.62;100.00;101076.16;6251153;28;20452;-69
2022/08/01 00:13:59;;;;;;;4.40;2.65;;;;;;;18.63;100.00;101069.00;6251063;28;20050;-69
2022/08/01 00:17:01;;;;;;;4.97;2.90;;;;;;;18.60;100.00;101080.75;6251131;28;20471;-70
2022/08/01 00:20:04;;;;;;;3.33;2.70;;;;;;;18.62;100.00;101080.59;6250991;28;20059;-70
2022/08/01 00:23:06;;;;;;;6.35;2.97;;;;;;;18.60;100.00;101072.75;6251058;28;20056;-70
2022/08/01 00:26:07;;;;;;;5.63;3.40;;;;;;;18.54;100.00;101083.06;6251187;28;20045;-70
2022/08/01 00:29:08;;;;;;;5.03;2.70;;;;;;;18.52;100.00;101077.84;6250902;28;20522;-69
2022/08/01 00:32:10;;;;;;;5.13;3.17;;;;;;;18.47;100.00;101069.41;6250706;28;20049;-72
2022/08/01 00:35:13;;;;;;;6.28;3.35;;;;;;;18.44;100.00;101077.63;6250504;28;20069;-70
2022/08/01 00:38:14;;;;;;;4.47;2.70;;;;;;;18.49;100.00;101083.44;6251042;28;20061;-70
2022/08/01 00:41:15;;;;;;;3.92;2.65;;;;;;;18.45;100.00;101082.84;6250499;28;20455;-70
2022/08/01 00:44:17;;;;;;;3.67;2.30;;;;;;;18.44;100.00;101081.16;6250489;28;20057;-70
2022/08/01 00:47:18;;;;;;;2.80;2.30;;;;;;;18.40;100.00;101087.69;6250471;28;20490;-70
2022/08/01 00:50:21;;;;;;;4.53;2.25;;;;;;;18.40;100.00;101086.84;6250606;28;20460;-70
2022/08/01 00:56:36;;;;;;;2.50;2.00;;;;;;;18.31;100.00;101090.25;6249419;28;20057;-77
2022/08/01 00:59:39;;;;;;;2.90;2.08;;;;;;;18.36;100.00;101091.56;6262263;28;20516;-76
2022/08/01 01:02:41;;;;;;;1.92;1.63;;;;;;;18.31;100.00;101095.59;6273864;28;20437;-77
2022/08/01 01:05:54;;;;;;;2.13;1.20;;;;;;;18.30;100.00;101094.72;6269323;28;20507;-74
2022/08/01 01:09:04;;;;;;;1.42;0.98;;;;;;;18.25;100.00;101103.06;6275254;28;20052;-76
2022/08/01 01:12:17;;;;;;;1.45;1.10;;;;;;;18.27;100.00;101102.97;6274890;28;20049;-77
2022/08/01 01:15:23;;;;;;;3.08;1.23;;;;;;;18.26;100.00;101106.59;6273635;28;20060;-76
2022/08/01 01:18:28;;;;;;;1.98;1.20;;;;;;;18.24;100.00;101103.19;6274825;28;20053;-77
2022/08/01 01:21:48;;;;;;;1.92;1.38;;;;;;;18.26;100.00;101095.94;6274481;28;20428;-77
2022/08/01 01:25:06;;;;;;;1.70;1.17;;;;;;;18.22;100.00;101105.16;6275229;28;20044;-76
2022/08/01 01:28:21;;;;;;;1.17;1.00;;;;;;;18.18;100.00;101109.00;6276474;28;20052;-79
2022/08/01 01:31:26;;;;;;;2.20;1.17;;;;;;;18.14;100.00;101110.22;6277395;28;20055;-76
2022/08/01 01:34:29;;;;;;;2.75;1.52;;;;;;;18.11;100.00;101108.63;6276622;28;20045;-76
2022/08/01 01:37:33;;;;;;;2.63;1.48;;;;;;;18.15;100.00;101107.44;6275317;28;20056;-76
2022/08/01 01:40:35;;;;;;;1.67;1.25;;;;;;;18.13;100.00;101108.53;6276702;28;20053;-78
2022/08/01 01:43:38;;;;;;;3.25;1.73;;;;;;;18.12;100.00;101115.69;6276074;28;20048;-78
2022/08/01 01:46:42;;;;;;;2.15;1.63;;;;;;;18.12;100.00;101113.00;6276071;28;20045;-78
2022/08/01 01:49:47;;;;;;;2.10;1.50;;;;;;;18.18;100.00;101122.31;6274845;28;20059;-76
2022/08/01 01:52:50;;;;;;;3.30;1.70;;;;;;;18.20;100.00;101112.38;6274437;28;20493;-76
2022/08/01 01:55:54;;;;;;;3.15;1.60;;;;;;;18.20;100.00;101115.03;6273554;28;20049;-78
2022/08/01 01:58:58;;;;;;;2.45;1.60;;;;;;;18.20;100.00;101107.06;6274521;28;20056;-76
2022/08/01 02:02:05;;;;;;;3.13;1.85;;;;;;;18.21;100.00;101114.06;6275131;28;20075;-78
2022/08/01 02:05:09;;;;;;;2.20;1.52;;;;;;;18.22;100.00;101115.78;6274513;28;20398;-78
2022/08/01 02:08:12;;;;;;;3.58;2.58;;;;;;;18.23;100.00;101114.81;6274522;28;20493;-77
2022/08/01 02:11:21;;;;;;;3.20;1.85;;;;;;;18.18;100.00;101114.34;6273651;28;20060;-77
2022/08/01 02:14:24;;;;;;;2.87;1.87;;;;;;;18.16;100.00;101117.09;6273540;28;20051;-77
2022/08/01 02:17:28;;;;;;;2.83;1.85;;;;;;;18.11;100.00;101115.78;6273455;28;20049;-77
2022/08/01 02:20:31;;;;;;;3.10;1.95;;;;;;;18.06;100.00;101124.13;6273607;28;20052;-78
2022/08/01 02:23:34;;;;;;;2.08;1.27;;;;;;;18.06;100.00;101125.94;6273368;28;20049;-77
2022/08/01 02:26:40;;;;;;;1.75;1.17;;;;;;;18.02;100.00;101124.47;6273222;28;20051;-76
2022/08/01 02:29:44;;;;;;;1.20;0.85;;;;;;;17.92;100.00;101133.19;6273670;28;20428;-76
2022/08/01 02:32:50;;;;;;;0.80;0.68;;;;;;;17.84;100.00;101135.59;6273570;28;20053;-76
2022/08/01 02:35:57;;;;;;;0.40;0.40;;;;;;;17.79;100.00;101134.25;6273454;28;20052;-76
2022/08/01 02:39:01;;;;;;;0.90;0.68;;;;;;;17.82;100.00;101128.72;6273227;28;20060;-77
2022/08/01 02:42:07;;;;;;;0.60;0.60;;;;;;;17.82;100.00;101132.22;6272605;28;20049;-76
2022/08/01 02:45:10;;;;;;;1.80;0.88;;;;;;;17.75;100.00;101133.63;6272968;28;20041;-76
2022/08/01 02:48:16;;;;;;;1.00;0.70;;;;;;;17.67;100.00;101136.88;6272383;28;20049;-77
2022/08/01 02:51:21;;;;;;;2.05;1.67;;;;;;;17.67;100.00;101136.03;6275271;28;20040;-77
2022/08/01 02:54:23;;;;;;;1.13;0.90;;;;;;;17.65;100.00;101136.13;6296892;28;20490;-76
2022/08/01 02:57:27;;;;;;;0.85;0.68;;;;;;;17.70;100.00;101139.28;6297041;28;20055;-76
2022/08/01 03:00:29;;;;;;;1.83;1.17;;;;;;;17.69;100.00;101139.41;6289203;28;20049;-76
2022/08/01 03:03:32;;;;;;;3.17;1.67;;;;;;;17.72;100.00;101141.84;6272971;28;20052;-76
2022/08/01 03:06:35;;;;;;;2.50;1.55;;;;;;;17.69;100.00;101142.91;6273323;28;20508;-76
2022/08/01 03:09:40;;;;;;;3.78;1.52;;;;;;;17.68;100.00;101143.88;6271985;28;20049;-76
2022/08/01 03:12:43;;;;;;;3.85;1.48;;;;;;;17.75;100.00;101141.59;6272098;28;20135;-77
2022/08/01 03:15:46;;;;;;;3.13;1.65;;;;;;;17.71;100.00;101145.44;6272309;28;20071;-76
2022/08/01 03:18:51;;;;;;;2.35;1.45;;;;;;;17.77;100.00;101153.00;6272117;28;20436;-76
2022/08/01 03:21:55;;;;;;;2.70;1.80;;;;;;;17.79;100.00;101152.84;6271955;28;20060;-76
2022/08/01 03:24:59;;;;;;;2.85;1.90;;;;;;;17.80;100.00;101158.06;6271615;28;20488;-76
2022/08/01 03:28:04;;;;;;;4.18;2.15;;;;;;;17.76;100.00;101164.59;6271948;28;20053;-76
2022/08/01 03:31:06;;;;;;;2.83;2.15;;;;;;;17.78;100.00;101152.03;6271377;28;20075;-76
2022/08/01 03:34:09;;;;;;;3.90;2.65;;;;;;;17.80;100.00;101166.03;6271432;28;20053;-75
2022/08/01 03:37:15;;;;;;;4.70;2.88;;;;;;;17.77;100.00;101160.97;6271548;28;20049;-76
2022/08/01 03:40:22;;;;;;;4.43;3.10;;;;;;;17.82;100.00;101171.25;6270686;28;20057;-76
2022/08/01 03:43:31;;;;;;;5.38;3.08;;;;;;;17.82;100.00;101180.06;6271552;28;20060;-76
2022/08/01 03:46:37;;;;;;;5.78;3.25;;;;;;;17.84;100.00;101178.13;6271779;28;20052;-75
2022/08/01 03:49:43;;;;;;;4.13;2.80;;;;;;;17.86;100.00;101176.22;6271702;28;20734;-77
2022/08/01 03:52:47;;;;;;;8.35;2.70;;;;;;;17.86;100.00;101173.56;6271538;28;20056;-77
2022/08/01 03:55:50;;;;;;;5.18;2.90;;;;;;;17.86;100.00;101173.56;6270973;28;20053;-76
2022/08/01 03:58:52;;;;;;;3.63;2.47;;;;;;;17.86;100.00;101170.03;6271542;28;20060;-77
2022/08/01 04:01:55;;;;;;;4.03;2.55;;;;;;;17.85;100.00;101184.28;6271066;28;20052;-77
2022/08/01 04:04:59;;;;;;;6.85;3.00;;;;;;;17.84;100.00;101185.25;6271063;28;20049;-77
2022/08/01 04:08:02;;;;;;;4.80;2.58;;;;;;;17.86;100.00;101176.22;6271087;28;20053;-77
2022/08/01 04:11:03;;;;;;;5.30;2.05;;;;;;;17.88;100.00;101181.41;6270971;28;20134;-77
2022/08/01 04:14:04;;;;;;;5.47;2.38;;;;;;;17.90;100.00;101185.66;6270848;28;20056;-76
2022/08/01 04:17:06;;;;;;;3.08;2.05;;;;;;;17.92;100.00;101185.53;6271091;28;20049;-77
2022/08/01 04:20:10;;;;;;;2.92;2.50;;;;;;;17.88;100.00;101195.53;6271294;28;20049;-76
2022/08/01 04:23:14;;;;;;;4.07;2.25;;;;;;;17.85;100.00;101189.59;6270837;28;20139;-76
2022/08/01 04:26:17;;;;;;;4.03;2.53;;;;;;;17.86;100.00;101193.97;6270724;28;20052;-76
2022/08/01 04:29:20;;;;;;;3.45;2.60;;;;;;;17.88;100.00;101202.66;6270817;28;20048;-76
2022/08/01 04:32:24;;;;;;;3.58;2.35;;;;;;;17.88;100.00;101198.19;6270756;28;20064;-76
2022/08/01 04:35:27;;;;;;;3.70;2.40;;;;;;;17.84;100.00;101209.19;6270466;28;20045;-76
2022/08/01 04:38:31;;;;;;;4.78;2.75;;;;;;;17.86;100.00;101208.13;6270837;28;20059;-76
2022/08/01 04:41:33;;;;;;;3.25;2.55;;;;;;;17.86;100.00;101209.94;6270499;28;20052;-76
2022/08/01 04:44:35;;;;;;;3.50;2.08;;;;;;;17.89;100.00;101220.31;6270993;28;20045;-76
2022/08/01 04:47:37;;;;;;;6.28;3.03;;;;;;;17.84;100.00;101218.00;6270606;28;20053;-76
2022/08/01 04:50:42;;;;;;;4.53;2.38;;;;;;;17.84;100.00;101207.38;6272460;28;20053;-76
2022/08/01 04:53:45;;;;;;;3.03;2.35;;;;;;;17.82;100.00;101217.28;6274802;28;20059;-76
2022/08/01 04:56:46;;;;;;;3.88;2.28;;;;;;;17.80;100.00;101234.31;6275335;28;20179;-77
2022/08/01 04:59:49;;;;;;;4.13;2.35;;;;;;;17.78;100.00;101236.25;6274977;28;20048;-76
2022/08/01 05:02:50;;;;;;;2.72;2.00;;;;;;;17.77;100.00;101240.72;6274951;28;20053;-76
2022/08/01 05:05:53;;;;;;;3.42;2.08;;;;;;;17.72;100.00;101246.34;6274856;28;20167;-76
2022/08/01 05:08:54;;;;;;;2.83;1.67;;;;;;;17.73;100.00;101245.41;6274703;28;20488;-76
2022/08/01 05:11:58;;;;;;;1.95;1.40;;;;;;;17.71;100.00;101247.31;6274932;28;20091;-76
2022/08/01 05:14:59;;;;;;;1.48;1.08;;;;;;;17.61;100.00;101256.09;6274500;28;20455;-76
2022/08/01 05:18:00;;;;;;;1.88;1.20;;;;;;;17.58;100.00;101254.53;6278306;28;20051;-76
2022/08/01 05:21:03;;;;;;;1.75;1.20;;;;;;;17.61;100.00;101253.44;6274488;28;20059;-77
2022/08/01 05:24:05;;;;;;;1.17;0.98;;;;;;;17.60;100.00;101246.44;6274293;28;20083;-76
2022/08/01 05:27:08;;;;;;;1.88;1.25;;;;;;;17.56;100.00;101252.94;6277537;28;20044;-76
2022/08/01 05:30:10;;;;;;;1.58;0.95;;;;;;;17.61;100.00;101248.97;6278841;28;20052;-76
2022/08/01 05:33:11;;;;;;;1.50;1.20;;;;;;;17.62;100.00;101249.81;6274153;28;20053;-76
2022/08/01 05:36:14;;;;;;;1.42;0.98;;;;;;;17.59;100.00;101261.53;6278689;28;20037;-75
2022/08/01 05:39:16;;;;;;;1.17;1.08;;;;;;;17.58;100.00;101253.69;6285223;28;20053;-76
2022/08/01 05:42:17;;;;;;;3.20;1.48;;;;;;;17.60;100.00;101257.91;6298752;28;20496;-76
2022/08/01 05:45:19;;;;;;;1.70;1.20;;;;;;;17.61;100.00;101256.09;6298724;28;20423;-76
2022/08/01 05:48:20;;;;;;;2.35;1.80;;;;;;;17.58;100.00;101266.97;6292831;28;20049;-75
2022/08/01 05:51:23;;;;;;;1.70;1.20;;;;;;;17.59;100.00;101272.16;6285900;28;20048;-76
2022/08/01 05:54:24;;;;;;;1.63;1.10;;;;;;;17.62;100.00;101269.28;6297218;28;20049;-76
2022/08/01 05:57:25;;;;;;;1.42;1.17;;;;;;;17.65;100.00;101271.69;6298586;28;20154;-76
2022/08/01 06:00:27;;;;;;;1.27;1.00;;;;;;;17.72;100.00;101272.09;6285845;28;20045;-76
2022/08/01 06:03:30;;;;;;;5.65;2.72;;;;;;;17.69;100.00;101274.97;6282868;28;20401;-76
2022/08/01 06:06:33;;;;;;;1.20;0.90;;;;;;;17.74;100.00;101279.00;6292151;28;20431;-76
2022/08/01 06:09:34;;;;;;;4.30;1.13;;;;;;;17.66;100.00;101288.47;6295365;28;20067;-76
2022/08/01 06:12:37;;;;;;;1.17;1.00;;;;;;;17.62;100.00;101294.97;6298218;28;20060;-76
2022/08/01 06:15:38;;;;;;;1.45;1.00;;;;;;;17.65;100.00;101294.78;6297182;28;20055;-76
2022/08/01 06:18:40;;;;;;;1.58;0.82;;;;;;;17.74;100.00;101291.47;6282867;28;20500;-76
2022/08/01 06:21:42;;;;;;;1.50;0.70;;;;;;;17.63;100.00;101292.22;6285088;28;21477;-75
2022/08/01 06:24:44;;;;;;;0.85;0.70;;;;;;;17.62;100.00;101303.84;6280145;28;20045;-76
2022/08/01 06:27:45;;;;;;;2.60;0.80;;;;;;;17.48;100.00;101312.78;6284714;28;20041;-76
2022/08/01 06:30:47;;;;;;;1.05;0.65;;;;;;;17.49;100.00;101309.19;6283071;28;20056;-74
2022/08/01 06:33:48;;;;;;;0.95;0.45;;;;;;;17.64;100.00;101309.88;6276618;28;20052;-75
2022/08/01 06:36:51;;;;;;;0.40;0.40;;;;;;;17.58;100.00;101318.31;6273090;28;20057;-75
2022/08/01 06:39:52;;;;;;;3.60;0.63;;;;;;;17.60;100.00;101310.22;6272591;28;20055;-75
2022/08/01 06:42:54;;;;;;;0.95;0.73;;;;;;;17.60;100.00;101311.06;6273047;28;20044;-76
2022/08/01 06:45:55;;;;;;;0.60;0.60;;;;;;;17.59;100.00;101312.03;6272515;28;20492;-76
2022/08/01 06:48:57;;;;;;;1.08;0.77;;;;;;;17.66;100.00;101315.91;6272669;28;20064;-75
2022/08/01 06:51:59;;;;;;;2.78;0.70;;;;;;;17.59;100.00;101321.81;6272440;28;20048;-75
2022/08/01 06:55:01;;;;;;;0.50;0.50;;;;;;;17.58;100.00;101322.78;6283165;23;20072;-70
2022/08/01 06:58:02;;;;;;;0.32;0.32;;;;;;;17.52;100.00;101317.91;6247469;28;20050;-72
2022/08/01 07:01:05;;;;;;;0.70;0.50;;;;;;;17.49;100.00;101327.81;6225163;28;20055;-70
2022/08/01 07:04:06;;;;;;;0.52;0.50;;;;;;;17.54;100.00;101323.97;6235308;28;20053;-70
2022/08/01 07:07:09;;;;;;;0.50;0.50;;;;;;;17.46;100.00;101325.38;6247334;28;20045;-70
2022/08/01 07:10:11;;;;;;;2.63;0.75;;;;;;;17.46;100.00;101324.50;6247529;28;20056;-70
2022/08/01 07:13:14;;;;;;;0.57;0.52;;;;;;;17.52;100.00;101332.03;6240917;28;20049;-69
2022/08/01 07:16:16;;;;;;;1.17;0.68;;;;;;;17.44;100.00;101337.91;6257621;28;20128;-70
2022/08/01 07:19:18;;;;;;;0.95;0.70;;;;;;;17.43;100.00;101338.00;6243917;28;20069;-70
2022/08/01 07:22:21;;;;;;;1.23;0.60;;;;;;;17.43;100.00;101346.00;6251193;28;20045;-71
2022/08/01 07:25:22;;;;;;;0.52;0.52;;;;;;;17.38;100.00;101337.50;6263178;28;20519;-72
2022/08/01 07:28:24;;;;;;;0.77;0.50;;;;;;;17.50;100.00;101344.59;6271910;28;20052;-69
2022/08/01 07:31:25;;;;;;;0.68;0.60;;;;;;;17.50;100.00;101337.47;6251481;28;20056;-70
2022/08/01 07:34:26;;;;;;;2.03;0.57;;;;;;;17.48;100.00;101342.03;6253148;28;20516;-70
2022/08/01 07:37:29;;;;;;;1.50;0.73;;;;;;;17.61;100.00;101343.78;6263301;28;20513;-70
2022/08/01 07:40:31;;;;;;;1.58;0.60;;;;;;;17.55;100.00;101349.56;6271283;28;20056;-71
2022/08/01 07:43:32;;;;;;;0.70;0.45;;;;;;;17.58;100.00;101355.53;6271656;28;20056;-71
2022/08/01 07:46:34;;;;;;;0.50;0.50;;;;;;;17.63;100.00;101356.03;6266789;28;20064;-72
2022/08/01 07:49:36;;;;;;;1.75;0.55;;;;;;;17.61;100.00;101354.44;6247465;28;20089;-72
2022/08/01 07:52:38;;;;;;;0.60;0.40;;;;;;;17.70;100.00;101357.25;6246841;28;20049;-71
2022/08/01 07:55:40;;;;;;;1.15;0.52;;;;;;;17.68;100.00;101361.84;6246252;28;20429;-70
2022/08/01 07:58:41;;;;;;;0.50;0.50;;;;;;;17.72;100.00;101368.66;6246664;28;20060;-70
2022/08/01 08:01:42;;;;;;;1.02;0.75;;;;;;;17.72;100.00;101368.66;6246666;28;20068;-71
2022/08/01 08:04:44;;;;;;;1.10;0.70;;;;;;;17.73;100.00;101374.81;6246298;28;20425;-70
2022/08/01 08:07:46;;;;;;;0.73;0.68;;;;;;;17.73;100.00;101383.66;6246408;28;20140;-71
2022/08/01 08:10:48;;;;;;;2.42;0.70;;;;;;;17.68;100.00;101371.63;6246474;28;20053;-71
2022/08/01 08:13:49;;;;;;;2.30;0.95;;;;;;;17.68;100.00;101384.94;6246071;28;20413;-70
2022/08/01 08:16:51;;;;;;;4.63;2.22;;;;;;;17.57;100.00;101384.84;6246352;28;20046;-70
2022/08/01 08:19:52;;;;;;;4.35;2.72;;;;;;;17.55;100.00;101384.13;6246035;28;20056;-71
2022/08/01 08:22:55;;;;;;;3.17;2.30;;;;;;;17.58;100.00;101390.06;6246280;28;20516;-70
2022/08/01 08:25:56;;;;;;;6.93;3.92;;;;;;;17.50;100.00;101397.75;6248428;28;20065;-70
2022/08/01 08:28:58;;;;;;;4.55;2.97;;;;;;;17.49;100.00;101393.41;6251199;28;20057;-71
2022/08/01 08:32:00;;;;;;;5.30;2.40;;;;;;;17.54;100.00;101407.19;6250897;28;20060;-69
2022/08/01 08:35:02;;;;;;;3.95;2.22;;;;;;;17.42;100.00;101406.25;6250701;28;20054;-70
2022/08/01 08:38:04;;;;;;;3.28;1.50;;;;;;;17.37;100.00;101411.06;6250989;28;20048;-71
2022/08/01 08:41:06;;;;;;;1.58;1.48;;;;;;;17.47;100.00;101416.56;6250555;28;20049;-70
2022/08/01 08:44:09;;;;;;;2.70;1.10;;;;;;;17.46;100.00;101420.19;6250756;28;20053;-71
2022/08/01 08:47:13;;;;;;;2.53;1.15;;;;;;;17.51;100.00;101415.38;6250656;28;20053;-70
2022/08/01 08:50:14;;;;;;;4.05;1.83;;;;;;;17.60;100.00;101421.84;6250365;28;20394;-73
2022/08/01 08:53:18;;;;;;;3.83;1.17;;;;;;;17.75;100.00;101420.75;6250632;28;20049;-71
2022/08/01 08:56:19;;;;;;;2.42;1.30;;;;;;;17.85;100.00;101427.13;6250092;28;20049;-71
2022/08/01 08:59:23;;;;;;;4.78;1.40;;;;;;;17.97;100.00;101423.53;6250451;28;20053;-70
2022/08/01 09:02:25;;;;;;;1.88;1.55;;;;;;;17.98;100.00;101424.38;6250351;28;20127;-71
2022/08/01 09:05:27;;;;;;;2.25;1.45;;;;;;;17.99;100.00;101434.94;6250161;28;20053;-71
2022/08/01 09:08:30;;;;;;;3.88;1.45;;;;;;;18.08;100.00;101440.56;6250372;28;20122;-69
2022/08/01 09:11:32;;;;;;;5.63;2.47;;;;;;;17.85;100.00;101436.88;6249917;28;20072;-71
2022/08/01 09:14:35;;;;;;;3.08;1.77;;;;;;;17.82;100.00;101439.78;6250068;28;20512;-72
2022/08/01 09:17:42;;;;;;;3.85;2.22;;;;;;;17.74;100.00;101450.97;6249929;28;20045;-71
2022/08/01 09:20:43;;;;;;;2.88;2.10;;;;;;;17.88;100.00;101448.16;6249902;28;20056;-71
2022/08/01 09:23:48;;;;;;;5.68;2.60;;;;;;;17.77;100.00;101471.19;6249825;28;20057;-72
2022/08/01 09:26:50;;;;;;;5.00;2.53;;;;;;;17.90;100.00;101474.66;6249799;28;20049;-71
2022/08/01 09:29:52;;;;;;;3.88;2.63;;;;;;;17.83;100.00;101476.03;6249587;28;20045;-72
2022/08/01 09:32:55;;;;;;;5.22;2.38;;;;;;;17.84;100.00;101480.41;6249618;28;20045;-72
2022/08/01 09:35:58;;;;;;;8.43;2.42;;;;;;;18.06;100.00;101493.00;6249388;28;20775;-76
2022/08/01 09:39:12;;;;;;;6.97;2.20;;;;;;;18.09;100.00;101498.09;6248959;28;20053;-73
2022/08/01 09:42:21;;;;;;;3.08;2.00;;;;;;;18.07;100.00;101494.69;6249620;28;20060;-73
2022/08/01 09:45:32;;;;;;;6.65;2.50;;;;;;;18.03;100.00;101498.53;6249015;28;20049;-72
2022/08/01 09:48:34;;;;;;;4.10;2.33;;;;;;;18.07;100.00;101492.88;6249300;28;20412;-72
2022/08/01 09:51:37;;;;;;;4.90;2.20;;;;;;;18.06;100.00;101499.16;6248922;28;20055;-71
2022/08/01 09:54:41;;;;;;;3.28;1.90;;;;;;;18.09;100.00;101496.28;6248992;28;20052;-72
2022/08/01 09:57:55;;;;;;;4.45;2.15;;;;;;;18.10;100.00;101490.00;6248869;28;20042;-73
2022/08/01 10:01:00;;;;;;;3.13;1.67;;;;;;;18.33;100.00;101498.94;6248914;28;20505;-72
2022/08/01 10:04:10;;;;;;;4.50;1.98;;;;;;;18.31;100.00;101494.72;6248793;28;20076;-72
2022/08/01 10:07:13;;;;;;;4.15;2.05;;;;;;;18.20;100.00;101498.16;6249053;28;20045;-73
2022/08/01 10:10:16;;;;;;;5.88;3.13;;;;;;;18.04;100.00;101495.78;6248561;28;20140;-72
2022/08/01 10:13:18;;;;;;;4.95;2.92;;;;;;;18.21;100.00;101498.06;6248763;28;20060;-72
2022/08/01 10:16:20;;;;;;;6.70;3.35;;;;;;;18.27;100.00;101491.44;6248380;28;20524;-72
2022/08/01 10:19:23;;;;;;;6.60;3.65;;;;;;;18.33;100.00;101501.59;6248277;28;20041;-71
2022/08/01 10:22:26;;;;;;;7.25;3.38;;;;;;;18.29;100.00;101494.81;6248170;28;20045;-72
2022/08/01 10:25:34;;;;;;;9.73;3.85;;;;;;;18.38;100.00;101503.94;6248582;28;20056;-71
2022/08/01 10:28:36;;;;;;;10.23;4.38;;;;;;;18.43;100.00;101499.94;6248382;28;20046;-72
2022/08/01 10:31:38;;;;;;;7.05;3.90;;;;;;;18.33;100.00;101501.59;6247977;28;20140;-71
2022/08/01 10:34:40;;;;;;;4.97;3.05;;;;;;;18.44;100.00;101506.13;6247886;28;20061;-71
2022/08/01 10:37:41;;;;;;;5.40;2.50;;;;;;;18.53;100.00;101502.81;6247929;28;20045;-71
2022/08/01 10:40:45;;;;;;;3.67;2.17;;;;;;;18.67;100.00;101499.09;6248124;28;20057;-71
2022/08/01 10:43:46;;;;;;;4.35;2.33;;;;;;;18.75;100.00;101497.56;6247699;28;20049;-72
2022/08/01 10:46:51;;;;;;;7.68;3.60;;;;;;;18.80;100.00;101491.03;6247985;28;20056;-72
2022/08/01 10:50:02;;;;;;;8.68;2.58;;;;;;;18.73;100.00;101490.69;6247311;28;20054;-71
2022/08/01 10:53:14;;;;;;;9.52;2.40;;;;;;;18.85;100.00;101496.88;6247785;28;20556;-71
2022/08/01 10:56:17;;;;;;;6.55;2.47;;;;;;;18.97;100.00;101490.63;6247198;28;20433;-71
2022/08/01 10:59:22;;;;;;;5.07;2.38;;;;;;;19.21;100.00;101494.06;6247661;28;20042;-71
2022/08/01 11:02:29;;;;;;;7.32;2.00;;;;;;;19.44;100.00;101489.59;6247414;28;20053;-71
2022/08/01 11:05:33;;;;;;;3.63;2.35;;;;;;;19.75;100.00;101481.81;6247204;28;20456;-72
2022/08/01 11:08:38;;;;;;;4.57;2.17;;;;;;;19.79;96.19;101477.09;6253372;28;20045;-73
2022/08/01 11:11:59;;;;;;;3.75;2.42;;;;;;;19.62;93.00;101487.31;6263834;28;20052;-73
2022/08/01 11:15:27;;;;;;;6.72;2.22;;;;;;;19.44;92.72;101486.06;6271894;28;20102;-73
2022/08/01 11:18:32;;;;;;;4.90;2.30;;;;;;;19.47;95.44;101492.00;6271967;28;20057;-71
2022/08/01 11:22:00;;;;;;;4.20;1.95;;;;;;;19.72;95.83;101480.28;6260136;28;20045;-71
2022/08/01 11:25:02;;;;;;;4.78;1.92;;;;;;;19.84;89.85;101483.75;6249821;28;20570;-73
2022/08/01 11:31:32;;;;;;;10.00;2.38;;;;;;;20.35;87.19;101476.94;6317772;27;20362;-72
2022/08/01 11:34:55;;;;;;;7.00;1.38;;;;;;;20.42;86.19;101472.81;6317741;28;20044;-73
2022/08/01 11:37:56;;;;;;;2.17;1.42;;;;;;;20.54;85.16;101468.31;6312793;28;20130;-73
2022/08/01 11:41:10;;;;;;;2.70;1.40;;;;;;;20.58;87.63;101469.75;6317938;28;20048;-73
2022/08/01 11:44:14;;;;;;;4.10;1.40;;;;;;;20.61;86.19;101475.66;6317483;28;20056;-73
2022/08/01 11:47:16;;;;;;;5.15;1.60;;;;;;;20.50;80.72;101468.56;6318101;28;20052;-74
2022/08/01 11:50:31;;;;;;;3.85;1.73;;;;;;;20.56;84.27;101477.03;6317204;28;20063;-74
2022/08/01 11:53:33;;;;;;;4.70;1.70;;;;;;;20.40;82.93;101474.78;6316633;28;20059;-73
2022/08/01 11:56:34;;;;;;;2.08;1.88;;;;;;;20.41;85.11;101471.13;6316216;28;20079;-73
2022/08/01 11:59:41;;;;;;;2.72;1.50;;;;;;;20.26;84.69;101476.75;6316338;28;20053;-74
2022/08/01 12:02:45;;;;;;;2.50;1.95;;;;;;;20.58;86.47;101475.94;6316723;28;20044;-73
2022/08/01 12:05:46;;;;;;;4.63;1.58;;;;;;;21.15;79.81;101471.91;6315905;28;20036;-72
2022/08/01 12:08:48;;;;;;;4.18;1.60;;;;;;;21.65;80.55;101463.16;6315582;28;20147;-72
2022/08/01 12:11:49;;;;;;;3.97;1.27;;;;;;;21.85;78.64;101467.59;6316813;28;20055;-72
2022/08/01 12:14:55;;;;;;;6.65;1.58;;;;;;;22.15;76.84;101471.19;6316821;28;20388;-73
2022/08/01 12:17:59;;;;;;;3.55;1.52;;;;;;;21.94;71.60;101464.09;6325010;28;20055;-73
2022/08/01 12:21:03;;;;;;;4.28;1.00;;;;;;;21.90;71.86;101470.69;6326782;28;20051;-74
2022/08/01 12:24:05;;;;;;;4.18;1.27;;;;;;;22.06;73.56;101463.94;6309683;28;20044;-73
2022/08/01 12:27:07;;;;;;;5.43;1.65;;;;;;;21.91;73.68;101468.88;6305473;28;20041;-73
2022/08/01 12:30:11;;;;;;;5.40;1.38;;;;;;;21.65;76.64;101469.34;6303225;28;20396;-72
2022/08/01 12:33:19;;;;;;;4.93;1.52;;;;;;;21.25;74.10;101474.63;6314674;28;20048;-73
2022/08/01 12:36:28;;;;;;;3.60;1.10;;;;;;;21.13;74.92;101473.06;6290848;28;20676;-73
2022/08/01 12:39:30;;;;;;;;;;;;;;;21.10;74.72;101470.63;6291954;28;20049;-72
2022/08/01 12:42:32;;;;;;;1.58;1.00;;;;;;;21.17;76.78;101471.81;6276470;28;19921;-72
2022/08/01 12:45:35;;;;;;;1.63;0.95;;;;;;;21.21;73.95;101474.09;6289928;28;20048;-73
2022/08/01 12:48:39;;;;;;;2.17;0.93;;;;;;;21.54;76.42;101469.47;6299069;28;20076;-72
2022/08/01 12:51:40;;;;;;;2.15;0.90;;;;;;;21.95;75.67;101467.59;6299002;28;20041;-72
2022/08/01 12:55:02;;;;;;;6.20;1.25;;;;;;;22.22;67.56;101466.97;6296065;28;20526;-73
2022/08/01 12:58:05;;;;;;;2.50;0.82;;;;;;;22.46;68.26;101474.59;6284051;28;20110;-74
2022/08/01 13:01:09;;;;;;;4.35;1.00;;;;;;;22.54;67.50;101478.25;6311260;28;20040;-73
2022/08/01 13:04:12;;;;;;;1.48;0.80;;;;;;;22.55;68.11;101473.72;6324176;28;20478;-73
2022/08/01 13:07:13;;;;;;;3.22;1.17;;;;;;;22.52;68.24;101476.69;6324417;28;20510;-75
2022/08/01 13:10:24;;;;;;;1.60;0.60;;;;;;;22.34;69.03;101475.69;6311320;28;20048;-73
2022/08/01 13:13:25;;;;;;;2.47;0.98;;;;;;;22.04;69.03;101482.84;6322261;28;20423;-73
2022/08/01 13:16:27;;;;;;;1.83;0.60;;;;;;;21.80;66.45;101488.53;6324036;28;20048;-75
2022/08/01 13:19:43;;;;;;;1.55;0.68;;;;;;;21.73;67.21;101488.25;6324013;28;20055;-74
2022/08/01 13:22:45;;;;;;;5.20;0.80;;;;;;;21.87;69.38;101483.50;6324168;28;20044;-73
2022/08/01 13:25:51;;;;;;;1.25;0.50;;;;;;;22.17;66.46;101491.50;6323441;28;20425;-74
2022/08/01 13:29:05;;;;;;;4.20;0.93;;;;;;;22.22;65.48;101477.69;6323978;28;20078;-76
2022/08/01 13:32:13;;;;;;;6.70;1.60;;;;;;;22.11;66.19;101485.78;6323546;28;20048;-76
2022/08/01 13:35:21;;;;;;;2.58;0.63;;;;;;;22.47;71.27;101476.28;6323854;28;20048;-75
2022/08/01 13:39:40;;;;;;;0.90;0.60;;;;;;;22.50;64.90;101479.53;6323439;28;20048;-76
2022/08/01 13:41:45;;;;;;;3.65;0.65;;;;;;;22.43;64.75;101477.53;6323007;28;20431;-75
2022/08/01 13:44:47;;;;;;;2.50;0.85;;;;;;;22.60;66.77;101479.50;6323230;28;20044;-75
2022/08/01 13:47:48;;;;;;;3.80;0.70;;;;;;;22.34;64.10;101476.53;6323466;28;20052;-75
2022/08/01 13:50:51;;;;;;;0.90;0.52;;;;;;;22.16;65.22;101475.53;6307127;28;20044;-76
2022/08/01 13:53:52;;;;;;;3.40;0.68;;;;;;;21.87;65.50;101479.00;6311783;28;20522;-76
2022/08/01 13:56:55;;;;;;;1.17;0.63;;;;;;;21.65;65.24;101488.06;6316641;28;20051;-76
2022/08/01 13:59:59;;;;;;;2.13;0.82;;;;;;;21.53;65.18;101490.03;6322703;28;20048;-77
2022/08/01 14:03:00;;;;;;;4.07;0.55;;;;;;;21.65;67.67;101485.41;6323111;28;20044;-76
2022/08/01 14:06:03;;;;;;;3.08;0.75;;;;;;;21.70;67.42;101493.03;6322559;28;20055;-76
2022/08/01 14:09:05;;;;;;;0.88;0.73;;;;;;;21.94;67.33;101480.16;6322946;28;20420;-76
2022/08/01 14:12:07;;;;;;;3.03;0.70;;;;;;;22.10;67.40;101484.09;6322518;28;20052;-76
2022/08/01 14:15:09;;;;;;;3.28;0.65;;;;;;;22.06;64.66;101493.41;6322541;28;20048;-77